Time;durP1;ratioP1;P1;durP2;ratioP2;P2;SDS_P1;SDS_P2;PMS_P1;PMS_P2;Temp;Humidity;BMP_temperature;BMP_pressure;BME280_temperature;BME280_humidity;BME280_pressure;Samples;Min_cycle;Max_cycle;Signal;HPM_P1;HPM_P2
2022/06/19 00:00:27;;;;;;;8.57;5.20;;;23.50;75.30;;;;;;5060225;28;20480;-82
2022/06/19 00:02:53;;;;;;;8.50;5.40;;;23.50;74.90;;;;;;5060713;28;20444;-83
2022/06/19 00:05:22;;;;;;;7.37;5.03;;;23.40;75.50;;;;;;5059903;28;20460;-81
2022/06/19 00:07:49;;;;;;;6.50;4.80;;;23.30;76.20;;;;;;5059730;28;20468;-82
2022/06/19 00:10:17;;;;;;;8.87;6.13;;;23.30;76.20;;;;;;5060316;28;20457;-82
2022/06/19 00:12:44;;;;;;;7.60;5.57;;;23.30;77.00;;;;;;5059936;28;20448;-83
2022/06/19 00:15:12;;;;;;;4.93;4.53;;;23.20;76.70;;;;;;5060409;28;20456;-82
2022/06/19 00:17:38;;;;;;;6.50;5.50;;;23.20;77.00;;;;;;5059562;28;20474;-81
2022/06/19 00:20:06;;;;;;;5.23;4.83;;;23.20;77.10;;;;;;5060341;28;20488;-80
2022/06/19 00:22:37;;;;;;;5.53;4.27;;;23.10;77.00;;;;;;5059916;28;20455;-82
2022/06/19 00:25:05;;;;;;;7.90;5.73;;;23.10;77.50;;;;;;5060329;28;20453;-83
2022/06/19 00:27:35;;;;;;;7.93;5.10;;;23.00;77.80;;;;;;5060139;28;20472;-83
2022/06/19 00:30:02;;;;;;;7.57;5.33;;;23.00;78.40;;;;;;5059459;28;20449;-85
2022/06/19 00:32:30;;;;;;;9.77;4.90;;;22.90;78.70;;;;;;5058790;28;20455;-82
2022/06/19 00:34:56;;;;;;;6.73;4.57;;;22.80;79.30;;;;;;5059523;28;20475;-82
2022/06/19 00:37:23;;;;;;;8.43;5.20;;;22.70;79.80;;;;;;5059671;28;20468;-82
2022/06/19 00:39:51;;;;;;;10.40;5.67;;;22.70;80.00;;;;;;5059261;28;20487;-82
2022/06/19 00:42:19;;;;;;;7.13;5.97;;;22.70;80.20;;;;;;5058630;28;20448;-82
2022/06/19 00:44:46;;;;;;;8.40;5.77;;;22.60;80.10;;;;;;5059374;28;20458;-82
2022/06/19 00:47:19;;;;;;;10.30;5.37;;;22.60;80.60;;;;;;5059302;28;20457;-82
2022/06/19 00:49:50;;;;;;;11.23;5.80;;;22.50;79.80;;;;;;5059161;28;20441;-82
2022/06/19 00:52:19;;;;;;;9.03;6.07;;;22.40;80.10;;;;;;5058768;28;20941;-81
2022/06/19 00:54:49;;;;;;;7.27;6.10;;;22.30;80.80;;;;;;5058763;28;20453;-81
2022/06/19 00:57:18;;;;;;;9.23;6.03;;;22.30;81.70;;;;;;5058530;28;20452;-82
2022/06/19 00:59:51;;;;;;;5.80;5.20;;;22.30;81.80;;;;;;5059171;28;20484;-82
2022/06/19 01:02:18;;;;;;;8.90;5.90;;;22.20;81.80;;;;;;5058967;28;20443;-81
2022/06/19 01:04:50;;;;;;;7.80;5.63;;;22.10;81.90;;;;;;5058738;28;20456;-82
2022/06/19 01:07:18;;;;;;;9.17;5.10;;;22.00;82.60;;;;;;5058537;28;20543;-81
2022/06/19 01:09:45;;;;;;;6.53;5.13;;;21.90;83.10;;;;;;5061611;28;20445;-79
2022/06/19 01:12:12;;;;;;;9.63;4.90;;;21.90;83.30;;;;;;5071546;28;20444;-81
2022/06/19 01:14:42;;;;;;;16.87;6.10;;;21.90;84.00;;;;;;5068705;28;20448;-82
2022/06/19 01:17:10;;;;;;;13.83;5.57;;;21.90;83.20;;;;;;5059773;28;20974;-82
2022/06/19 01:19:41;;;;;;;9.13;5.10;;;21.90;83.10;;;;;;5059109;28;20463;-82
2022/06/19 01:22:18;;;;;;;8.13;5.93;;;21.80;83.20;;;;;;5057829;28;20458;-85
2022/06/19 01:25:04;;;;;;;6.30;4.20;;;21.80;82.10;;;;;;5058650;28;20462;-83
2022/06/19 01:30:27;;;;;;;10.70;5.40;;;21.80;83.30;;;;;;5001565;28;20446;-81
2022/06/19 01:32:56;;;;;;;5.50;4.83;;;21.50;83.90;;;;;;5057971;28;20447;-82
2022/06/19 01:35:23;;;;;;;11.67;5.17;;;21.60;84.10;;;;;;5058954;28;20451;-81
2022/06/19 01:37:52;;;;;;;13.30;5.20;;;21.60;83.70;;;;;;5058359;28;20471;-82
2022/06/19 01:40:23;;;;;;;6.50;4.33;;;21.60;83.20;;;;;;5059069;28;20849;-82
2022/06/19 01:42:50;;;;;;;12.33;5.10;;;21.60;84.20;;;;;;5059021;28;20465;-82
2022/06/19 01:45:18;;;;;;;6.97;5.13;;;21.60;86.10;;;;;;5058966;28;20475;-82
2022/06/19 01:47:45;;;;;;;7.57;4.90;;;21.70;85.70;;;;;;5058517;28;20503;-81
2022/06/19 01:50:16;;;;;;;9.37;5.00;;;21.70;85.40;;;;;;5058470;28;20461;-82
2022/06/19 01:52:44;;;;;;;7.10;4.60;;;21.70;85.20;;;;;;5058785;28;20994;-83
2022/06/19 01:55:13;;;;;;;8.00;4.77;;;21.60;85.30;;;;;;5058330;28;20548;-83
2022/06/19 01:57:44;;;;;;;8.77;4.90;;;21.60;86.40;;;;;;5059149;28;20473;-83
2022/06/19 02:00:17;;;;;;;7.00;5.00;;;21.60;86.20;;;;;;5059117;28;20486;-83
2022/06/19 02:02:47;;;;;;;8.37;5.60;;;21.60;86.80;;;;;;5058498;28;20458;-83
2022/06/19 02:05:14;;;;;;;6.67;5.50;;;21.60;87.30;;;;;;5057911;28;20453;-83
2022/06/19 02:07:41;;;;;;;7.23;5.27;;;21.50;87.50;;;;;;5056822;28;20695;-83
2022/06/19 02:10:09;;;;;;;7.30;5.50;;;21.50;87.80;;;;;;5056577;28;20457;-83
2022/06/19 02:12:36;;;;;;;8.00;6.20;;;21.50;87.80;;;;;;5056148;28;20452;-82
2022/06/19 02:15:10;;;;;;;9.90;6.17;;;21.10;89.70;;;;;;5056818;28;20476;-83
2022/06/19 02:17:42;;;;;;;10.30;6.30;;;21.10;90.10;;;;;;5056256;28;21034;-83
2022/06/19 02:20:11;;;;;;;11.90;6.23;;;21.10;89.80;;;;;;5058120;28;20518;-83
2022/06/19 02:22:38;;;;;;;9.40;5.17;;;21.20;89.80;;;;;;5059984;28;20480;-83
2022/06/19 02:25:06;;;;;;;8.53;4.73;;;21.20;88.70;;;;;;5060252;28;20974;-83
2022/06/19 02:27:36;;;;;;;10.30;6.03;;;21.20;87.60;;;;;;5060224;28;21017;-83
2022/06/19 02:30:06;;;;;;;7.67;4.77;;;21.20;86.80;;;;;;5062180;28;20459;-83
2022/06/19 02:32:39;;;;;;;10.03;6.30;;;21.30;86.90;;;;;;5061386;28;20449;-83
2022/06/19 02:35:07;;;;;;;8.93;4.80;;;21.30;85.50;;;;;;5061276;28;20800;-83
2022/06/19 02:37:41;;;;;;;10.80;5.40;;;21.30;84.30;;;;;;5062077;28;20882;-83
2022/06/19 02:40:19;;;;;;;7.90;5.50;;;21.40;83.00;;;;;;5061471;28;20459;-83
2022/06/19 02:42:47;;;;;;;9.07;5.03;;;21.40;82.50;;;;;;5061923;28;20485;-83
2022/06/19 02:45:19;;;;;;;7.40;4.53;;;21.50;82.60;;;;;;5061854;28;20456;-83
2022/06/19 02:47:46;;;;;;;9.70;5.00;;;21.50;82.20;;;;;;5062048;28;20470;-83
2022/06/19 02:50:16;;;;;;;7.03;5.07;;;21.60;81.60;;;;;;5061450;28;20834;-83
2022/06/19 02:52:43;;;;;;;9.00;5.07;;;21.60;81.70;;;;;;5062185;28;20460;-83
2022/06/19 02:55:10;;;;;;;6.97;4.20;;;21.60;81.60;;;;;;5061481;28;20461;-83
2022/06/19 02:57:37;;;;;;;6.47;4.50;;;21.60;81.90;;;;;;5060455;28;20472;-82
2022/06/19 03:00:06;;;;;;;15.73;6.07;;;21.60;81.60;;;;;;5060469;28;20451;-82
2022/06/19 03:02:34;;;;;;;5.70;4.33;;;21.60;81.40;;;;;;5060693;28;20456;-82
2022/06/19 03:05:03;;;;;;;7.63;4.40;;;21.70;80.70;;;;;;5060783;28;20452;-83
2022/06/19 03:07:30;;;;;;;9.60;5.77;;;21.70;80.80;;;;;;5060774;28;20478;-83
2022/06/19 03:09:58;;;;;;;6.33;4.53;;;21.70;80.70;;;;;;5060630;28;20455;-83
2022/06/19 03:12:25;;;;;;;8.60;6.27;;;21.80;81.20;;;;;;5059082;28;20450;-83
2022/06/19 03:14:52;;;;;;;8.80;5.10;;;21.70;79.90;;;;;;5060675;28;20546;-83
2022/06/19 03:17:21;;;;;;;6.50;3.53;;;21.80;80.60;;;;;;5059759;28;20453;-83
2022/06/19 03:19:49;;;;;;;10.00;5.90;;;21.80;80.60;;;;;;5061308;28;20440;-83
2022/06/19 03:22:16;;;;;;;7.90;4.47;;;21.90;81.00;;;;;;5060616;28;20489;-83
2022/06/19 03:24:43;;;;;;;9.20;4.67;;;21.90;80.60;;;;;;5061034;28;20461;-84
2022/06/19 03:27:12;;;;;;;9.63;5.10;;;21.90;80.80;;;;;;5060316;28;20447;-81
2022/06/19 03:33:11;;;;;;;7.07;5.17;;;22.00;80.00;;;;;;4946533;28;20944;-85
2022/06/19 03:35:40;;;;;;;8.50;4.27;;;22.00;79.90;;;;;;4978736;28;20452;-83
2022/06/19 03:38:06;;;;;;;6.90;4.93;;;22.00;80.10;;;;;;5078968;28;20842;-83
2022/06/19 03:40:33;;;;;;;9.30;4.80;;;22.00;79.60;;;;;;5078816;28;20483;-83
2022/06/19 03:43:00;;;;;;;9.87;4.90;;;22.00;79.60;;;;;;5064730;28;20456;-83
2022/06/19 03:45:27;;;;;;;7.87;5.30;;;22.10;79.20;;;;;;5059390;28;20457;-83
2022/06/19 03:47:54;;;;;;;9.93;4.73;;;22.10;79.40;;;;;;5072126;28;20447;-83
2022/06/19 03:50:21;;;;;;;5.93;5.33;;;22.10;79.00;;;;;;5069449;28;20988;-83
2022/06/19 03:52:49;;;;;;;12.37;5.73;;;22.10;80.20;;;;;;5063385;28;20455;-83
2022/06/19 03:55:16;;;;;;;8.10;4.50;;;22.20;80.60;;;;;;5089300;28;20577;-83
2022/06/19 03:57:43;;;;;;;7.20;4.50;;;22.20;80.20;;;;;;5070994;28;20456;-83
2022/06/19 04:00:13;;;;;;;6.83;4.97;;;22.20;80.30;;;;;;5059288;28;20455;-83
2022/06/19 04:02:41;;;;;;;6.10;4.43;;;22.20;80.50;;;;;;5065179;28;20485;-83
2022/06/19 04:05:08;;;;;;;7.90;5.50;;;22.10;80.40;;;;;;5079668;28;20469;-83
2022/06/19 04:07:42;;;;;;;8.00;5.40;;;22.10;80.80;;;;;;5075203;28;20828;-83
2022/06/19 04:10:11;;;;;;;8.77;4.70;;;22.10;81.40;;;;;;5060556;28;20868;-83
2022/06/19 04:12:38;;;;;;;5.57;4.63;;;22.10;81.80;;;;;;5075335;28;20450;-83
2022/06/19 04:15:05;;;;;;;8.93;5.03;;;22.20;82.30;;;;;;5079114;28;20457;-82
2022/06/19 04:17:32;;;;;;;6.00;5.40;;;22.20;82.30;;;;;;5065200;28;20461;-83
2022/06/19 04:19:59;;;;;;;5.23;4.83;;;22.30;82.50;;;;;;5068052;28;20833;-83
2022/06/19 04:22:26;;;;;;;5.63;5.00;;;22.30;83.10;;;;;;5078459;28;20490;-83
2022/06/19 04:24:52;;;;;;;5.03;3.80;;;22.30;83.20;;;;;;5071099;28;20462;-82
2022/06/19 04:27:23;;;;;;;6.33;3.70;;;22.40;83.00;;;;;;5062179;28;20823;-83
2022/06/19 04:29:50;;;;;;;5.93;5.00;;;22.30;83.00;;;;;;5078871;28;20574;-83
2022/06/19 04:32:17;;;;;;;6.73;5.63;;;22.40;83.30;;;;;;5076187;28;20474;-82
2022/06/19 04:34:44;;;;;;;8.43;4.50;;;22.50;83.30;;;;;;5059152;28;20470;-83
2022/06/19 04:37:11;;;;;;;8.97;6.13;;;22.50;83.70;;;;;;5059600;28;20455;-83
2022/06/19 04:39:37;;;;;;;11.33;5.20;;;22.50;83.60;;;;;;5078364;28;20475;-83
2022/06/19 04:42:06;;;;;;;4.97;4.47;;;22.50;83.70;;;;;;5077598;28;20487;-83
2022/06/19 04:44:36;;;;;;;7.93;4.80;;;22.60;83.80;;;;;;5065939;28;20452;-82
2022/06/19 04:47:04;;;;;;;5.90;5.07;;;22.60;84.10;;;;;;5074098;28;20447;-83
2022/06/19 04:49:31;;;;;;;7.57;4.40;;;22.60;83.90;;;;;;5078404;28;20476;-83
2022/06/19 04:51:58;;;;;;;6.03;4.20;;;22.70;84.00;;;;;;5064173;28;20448;-82
2022/06/19 04:54:24;;;;;;;7.17;4.57;;;22.70;83.40;;;;;;5057922;28;20942;-83
2022/06/19 04:56:51;;;;;;;6.17;4.50;;;22.70;83.00;;;;;;5070650;28;20456;-83
2022/06/19 04:59:18;;;;;;;7.40;5.30;;;22.80;82.80;;;;;;5078304;28;20475;-83
2022/06/19 05:01:47;;;;;;;8.63;4.47;;;22.80;82.70;;;;;;5066934;28;20487;-83
2022/06/19 05:04:14;;;;;;;6.20;5.20;;;22.90;82.60;;;;;;5058039;28;20474;-83
2022/06/19 05:06:41;;;;;;;11.97;4.93;;;22.90;82.60;;;;;;5068079;28;20447;-84
2022/06/19 05:09:08;;;;;;;9.80;7.73;;;23.00;82.10;;;;;;5076280;28;20477;-83
2022/06/19 05:11:36;;;;;;;12.57;5.97;;;22.90;80.40;;;;;;5077405;28;20443;-84
2022/06/19 05:14:03;;;;;;;10.20;5.60;;;23.00;80.50;;;;;;5077555;28;20448;-83
2022/06/19 05:16:31;;;;;;;9.97;5.90;;;23.00;79.30;;;;;;5079029;28;21029;-83
2022/06/19 05:19:00;;;;;;;5.70;4.70;;;23.00;80.20;;;;;;5075151;28;20471;-83
2022/06/19 05:21:27;;;;;;;8.90;4.60;;;23.10;80.00;;;;;;5057720;28;20486;-83
2022/06/19 05:23:55;;;;;;;11.73;5.13;;;23.20;79.60;;;;;;5065518;28;20490;-83
2022/06/19 05:26:24;;;;;;;5.80;4.97;;;23.20;79.60;;;;;;5077888;28;20531;-83
2022/06/19 05:28:51;;;;;;;11.63;4.70;;;23.30;80.60;;;;;;5073752;28;21017;-83
2022/06/19 05:31:18;;;;;;;7.73;5.30;;;23.40;80.70;;;;;;5046584;28;20441;-82
2022/06/19 05:33:46;;;;;;;12.90;5.10;;;23.50;81.70;;;;;;5041881;28;20453;-83
2022/06/19 05:36:16;;;;;;;5.57;4.77;;;23.60;82.10;;;;;;5049526;28;20471;-83
2022/06/19 05:38:43;;;;;;;7.47;4.87;;;23.70;82.60;;;;;;5077697;28;20475;-83
2022/06/19 05:41:10;;;;;;;11.23;4.77;;;23.80;80.50;;;;;;5064434;28;20488;-83
2022/06/19 05:43:37;;;;;;;13.10;5.13;;;23.90;79.20;;;;;;5057151;28;20494;-83
2022/06/19 05:46:08;;;;;;;9.23;5.67;;;23.90;79.20;;;;;;5068440;28;20452;-83
2022/06/19 05:48:36;;;;;;;8.60;4.77;;;23.90;79.80;;;;;;5077600;28;20464;-82
2022/06/19 05:51:05;;;;;;;7.30;5.53;;;23.90;79.50;;;;;;5065825;28;20502;-82
2022/06/19 05:53:38;;;;;;;8.47;4.83;;;24.00;80.80;;;;;;5063380;28;20456;-83
2022/06/19 05:56:06;;;;;;;12.73;7.70;;;24.10;80.70;;;;;;5081494;28;20443;-83
2022/06/19 05:58:33;;;;;;;11.50;4.80;;;24.20;81.10;;;;;;5065256;28;20515;-83
2022/06/19 06:01:01;;;;;;;9.53;5.70;;;24.20;80.80;;;;;;5060772;28;20791;-83
2022/06/19 06:03:29;;;;;;;9.10;6.20;;;24.30;81.40;;;;;;5074895;28;20526;-83
2022/06/19 06:06:00;;;;;;;10.43;5.70;;;24.40;79.20;;;;;;5076029;28;20448;-83
2022/06/19 06:08:28;;;;;;;10.10;5.40;;;24.40;79.70;;;;;;5081404;28;20485;-83
2022/06/19 06:10:57;;;;;;;16.00;6.53;;;24.60;79.90;;;;;;5070424;28;20463;-83
2022/06/19 06:13:25;;;;;;;7.83;4.60;;;24.70;80.10;;;;;;5067904;28;20437;-83
2022/06/19 06:15:52;;;;;;;9.67;6.10;;;24.80;80.30;;;;;;5081618;28;20484;-83
2022/06/19 06:18:19;;;;;;;7.37;4.53;;;24.80;77.80;;;;;;5075823;28;20559;-83
2022/06/19 06:20:55;;;;;;;9.00;5.50;;;24.90;79.20;;;;;;5061392;28;20535;-82
2022/06/19 06:23:22;;;;;;;10.43;5.80;;;25.00;78.60;;;;;;5048047;28;20479;-81
2022/06/19 06:25:48;;;;;;;8.20;5.87;;;25.10;80.20;;;;;;5042377;28;20442;-82
2022/06/19 06:28:16;;;;;;;6.73;5.37;;;25.20;80.50;;;;;;5078079;28;20484;-83
2022/06/19 06:30:45;;;;;;;10.83;5.27;;;25.20;79.30;;;;;;5071627;28;20457;-83
2022/06/19 06:33:12;;;;;;;9.60;6.83;;;25.30;79.90;;;;;;5061256;28;20462;-83
2022/06/19 06:35:38;;;;;;;8.23;5.30;;;25.40;79.30;;;;;;5069171;28;20452;-83
2022/06/19 06:38:05;;;;;;;11.97;6.53;;;25.50;79.90;;;;;;5074300;28;20471;-83
2022/06/19 06:40:33;;;;;;;9.70;5.77;;;25.60;80.10;;;;;;5063434;28;20981;-83
2022/06/19 06:43:00;;;;;;;15.43;6.60;;;25.70;81.00;;;;;;5082116;28;20569;-84
2022/06/19 06:45:28;;;;;;;11.10;5.67;;;25.70;81.80;;;;;;5081107;28;20440;-83
2022/06/19 06:47:55;;;;;;;8.97;5.83;;;25.80;80.70;;;;;;5061862;28;20456;-83
2022/06/19 06:50:22;;;;;;;15.20;5.97;;;25.90;79.20;;;;;;5061541;28;20457;-84
2022/06/19 06:52:49;;;;;;;11.77;6.00;;;26.00;80.40;;;;;;5081085;28;20450;-83
2022/06/19 06:55:16;;;;;;;10.57;6.97;;;26.20;81.70;;;;;;5077831;28;20445;-83
2022/06/19 06:57:43;;;;;;;11.13;6.27;;;26.30;82.40;;;;;;5060685;28;20442;-82
2022/06/19 07:00:16;;;;;;;6.90;5.57;;;26.50;83.70;;;;;;5071321;28;20451;-83
2022/06/19 07:02:44;;;;;;;8.20;5.70;;;26.60;82.50;;;;;;5081431;28;21019;-82
2022/06/19 07:05:11;;;;;;;6.63;4.87;;;26.80;82.80;;;;;;5069885;28;20463;-83
2022/06/19 07:07:38;;;;;;;8.20;5.30;;;26.90;82.50;;;;;;5065848;28;20448;-83
2022/06/19 07:10:06;;;;;;;7.80;5.80;;;26.90;82.30;;;;;;5080504;28;20469;-83
2022/06/19 07:12:32;;;;;;;7.53;6.37;;;27.00;81.70;;;;;;5077456;28;20435;-82
2022/06/19 07:14:59;;;;;;;9.67;5.90;;;27.00;79.80;;;;;;5068289;28;20452;-83
2022/06/19 07:17:26;;;;;;;9.63;5.67;;;27.00;81.30;;;;;;5061181;28;20938;-80
2022/06/19 07:19:54;;;;;;;7.50;5.73;;;27.00;83.00;;;;;;5041432;28;20470;-84
2022/06/19 07:22:22;;;;;;;11.20;5.90;;;27.00;80.90;;;;;;5068986;28;20479;-84
2022/06/19 07:24:48;;;;;;;11.30;5.70;;;27.00;79.10;;;;;;5080496;28;20458;-83
2022/06/19 07:27:15;;;;;;;10.47;6.00;;;27.10;78.20;;;;;;5067439;28;21145;-82
2022/06/19 07:29:43;;;;;;;10.07;6.57;;;27.20;77.60;;;;;;5062258;28;20506;-84
2022/06/19 07:32:11;;;;;;;7.37;6.63;;;27.20;75.00;;;;;;5074077;28;20453;-83
2022/06/19 07:34:39;;;;;;;15.43;8.07;;;27.30;77.10;;;;;;5081717;28;20483;-83
2022/06/19 07:37:07;;;;;;;8.63;5.50;;;27.30;76.70;;;;;;5069542;28;20448;-84
2022/06/19 07:39:35;;;;;;;10.00;6.97;;;27.50;77.90;;;;;;5061101;28;20477;-83
2022/06/19 07:42:05;;;;;;;6.50;5.90;;;27.50;77.70;;;;;;5059954;28;20487;-83
2022/06/19 07:44:32;;;;;;;7.73;7.03;;;27.60;76.70;;;;;;5064164;28;20450;-84
2022/06/19 07:52:28;;;;;;;10.90;7.57;;;28.00;75.90;;;;;;5059473;28;20786;-84
2022/06/19 07:54:56;;;;;;;10.77;7.67;;;28.10;74.30;;;;;;5073942;28;20473;-84
2022/06/19 07:57:23;;;;;;;11.10;7.37;;;28.20;74.10;;;;;;5080382;28;20455;-84
2022/06/19 07:59:50;;;;;;;13.37;8.43;;;28.30;73.50;;;;;;5066678;28;20472;-84
2022/06/19 08:02:17;;;;;;;11.60;9.27;;;28.40;72.30;;;;;;5075477;28;20487;-84
2022/06/19 08:04:44;;;;;;;11.63;9.90;;;28.60;71.70;;;;;;5076156;28;20475;-84
2022/06/19 08:07:12;;;;;;;11.00;9.40;;;28.70;71.50;;;;;;5059150;28;20451;-84
2022/06/19 08:09:41;;;;;;;10.60;8.83;;;28.90;71.80;;;;;;5057673;28;20471;-84
2022/06/19 08:12:09;;;;;;;16.13;9.43;;;29.00;70.10;;;;;;5058929;28;20453;-84
2022/06/19 08:14:36;;;;;;;9.83;8.80;;;29.10;70.50;;;;;;5060631;28;20453;-85
2022/06/19 08:17:03;;;;;;;14.43;9.13;;;29.30;71.20;;;;;;5078970;28;20817;-83
2022/06/19 08:20:16;;;;;;;9.50;8.80;;;29.40;69.60;;;;;;5062922;28;20469;-88
2022/06/19 08:29:17;;;;;;;;;;;;;;;;;;;;;
2022/06/19 08:42:12;;;;;;;12.33;10.90;;;30.30;61.30;;;;;;4993006;28;20538;-86
2022/06/19 08:45:24;;;;;;;15.13;11.37;;;30.50;61.80;;;;;;5013902;28;20474;-85
2022/06/19 08:48:24;;;;;;;12.67;11.60;;;30.60;62.40;;;;;;5039616;28;20499;-87
2022/06/19 08:54:26;;;;;;;11.93;10.87;;;30.90;59.90;;;;;;5040420;28;20821;-86
2022/06/19 08:57:02;;;;;;;11.70;10.70;;;31.00;59.00;;;;;;5045702;28;20483;-85
2022/06/19 09:14:04;;;;;;;14.07;12.77;;;31.40;58.50;;;;;;4943405;29;20948;-86
2022/06/19 09:23:28;;;;;;;18.33;12.03;;;31.70;53.30;;;;;;4984136;28;20461;-82
2022/06/19 09:26:02;;;;;;;11.80;10.07;;;31.80;52.50;;;;;;5071917;28;20447;-86
2022/06/19 09:28:38;;;;;;;18.43;10.60;;;31.90;48.40;;;;;;5192894;22;20466;-84
2022/06/19 09:31:08;;;;;;;12.90;11.63;;;31.90;47.70;;;;;;5079717;28;20975;-86
2022/06/19 09:33:42;;;;;;;13.33;12.13;;;32.00;48.30;;;;;;5081609;28;21002;-85
2022/06/19 09:36:30;;;;;;;13.33;10.87;;;32.10;47.90;;;;;;5081020;28;20950;-85
2022/06/19 09:39:01;;;;;;;10.23;9.27;;;32.30;48.50;;;;;;5076149;28;20471;-86
2022/06/19 09:41:37;;;;;;;11.60;10.37;;;32.30;48.00;;;;;;5074016;28;20481;-85
2022/06/19 09:44:08;;;;;;;11.40;10.33;;;32.40;46.50;;;;;;5076507;28;20449;-86
2022/06/19 09:46:43;;;;;;;12.80;11.63;;;32.60;47.20;;;;;;5063459;28;20958;-86
2022/06/19 09:49:17;;;;;;;11.10;10.00;;;32.70;46.80;;;;;;5057993;28;21057;-86
2022/06/19 09:51:53;;;;;;;13.03;11.63;;;32.80;46.60;;;;;;5060074;28;20451;-87
2022/06/19 09:54:25;;;;;;;12.37;11.27;;;32.80;46.10;;;;;;5071525;28;20485;-86
2022/06/19 09:56:58;;;;;;;12.73;10.50;;;32.90;45.80;;;;;;5061806;28;20456;-85
2022/06/19 09:59:32;;;;;;;11.27;10.20;;;33.00;46.30;;;;;;5062693;28;20482;-86
2022/06/19 10:02:06;;;;;;;12.87;11.47;;;33.20;46.00;;;;;;5055001;28;20451;-86
2022/06/19 10:04:40;;;;;;;12.30;10.73;;;33.20;44.30;;;;;;5050455;28;21098;-85
2022/06/19 10:07:11;;;;;;;17.27;10.77;;;33.20;43.30;;;;;;5057748;28;20521;-85
2022/06/19 10:09:46;;;;;;;10.37;9.47;;;33.30;43.80;;;;;;5061375;28;21014;-85
2022/06/19 10:12:29;;;;;;;12.30;10.43;;;33.20;43.10;;;;;;5051676;28;20436;-85
2022/06/19 10:15:02;;;;;;;16.87;11.63;;;33.30;42.90;;;;;;5055637;28;20458;-85
2022/06/19 10:17:35;;;;;;;12.30;10.77;;;33.10;42.80;;;;;;5052963;28;20448;-85
2022/06/19 10:20:12;;;;;;;11.10;9.90;;;33.20;42.90;;;;;;5065624;28;20478;-86
2022/06/19 10:22:53;;;;;;;10.33;9.17;;;33.20;42.60;;;;;;5078314;28;20463;-85
2022/06/19 10:25:46;;;;;;;11.20;10.20;;;33.30;42.40;;;;;;5076971;28;20544;-86
2022/06/19 10:28:36;;;;;;;12.53;10.40;;;33.50;43.00;;;;;;5053238;28;20514;-86
2022/06/19 10:31:12;;;;;;;11.30;10.30;;;33.60;41.40;;;;;;5021897;28;20527;-85
2022/06/19 10:33:53;;;;;;;11.07;9.40;;;33.60;41.60;;;;;;5061831;28;20482;-86
2022/06/19 10:36:30;;;;;;;10.13;9.30;;;33.70;43.20;;;;;;5072659;28;20439;-86
2022/06/19 10:39:10;;;;;;;10.43;9.70;;;33.90;42.60;;;;;;5068240;28;20975;-86
2022/06/19 10:42:05;;;;;;;10.43;9.53;;;34.00;41.90;;;;;;5076307;28;20456;-87
2022/06/19 10:44:48;;;;;;;11.07;9.97;;;34.20;42.00;;;;;;5076367;28;20459;-86
2022/06/19 10:47:25;;;;;;;12.30;10.77;;;34.40;41.90;;;;;;5066093;28;20444;-86
2022/06/19 10:50:04;;;;;;;10.20;9.40;;;34.40;41.30;;;;;;5076358;28;20463;-86
2022/06/19 10:52:44;;;;;;;11.27;10.03;;;34.70;41.80;;;;;;5058957;28;20832;-87
2022/06/19 10:55:22;;;;;;;9.03;8.27;;;34.80;41.80;;;;;;5054657;28;20448;-86
2022/06/19 10:58:02;;;;;;;9.17;8.33;;;34.80;39.50;;;;;;5051207;28;20456;-85
2022/06/19 11:00:29;;;;;;;11.43;6.83;;;34.80;39.20;;;;;;5052788;28;20444;-85
2022/06/19 11:05:51;;;;;;;11.20;8.37;;;34.80;37.90;;;;;;5058904;28;20710;-85
2022/06/19 11:08:23;;;;;;;8.57;7.53;;;35.00;37.90;;;;;;5056073;28;20475;-84
2022/06/19 11:10:53;;;;;;;7.97;7.10;;;35.30;38.80;;;;;;5059741;28;20441;-85
2022/06/19 11:13:24;;;;;;;9.50;8.60;;;35.50;37.10;;;;;;5056155;28;20480;-85
2022/06/19 11:16:02;;;;;;;8.93;8.03;;;36.00;37.50;;;;;;5060636;28;20535;-85
2022/06/19 11:18:29;;;;;;;9.03;8.07;;;36.30;35.30;;;;;;5056179;28;20472;-85
2022/06/19 11:21:00;;;;;;;10.67;7.80;;;36.40;35.40;;;;;;5051688;28;20801;-85
2022/06/19 11:23:35;;;;;;;7.53;6.83;;;36.80;35.50;;;;;;5055369;28;20455;-85
2022/06/19 11:26:08;;;;;;;8.20;7.40;;;37.10;34.60;;;;;;5034602;28;20461;-85
2022/06/19 11:49:36;;;;;;;10.23;7.40;;;37.60;33.90;;;;;;1975393;22;20991;-85
2022/06/19 11:52:20;;;;;;;9.00;8.20;;;38.00;33.30;;;;;;4991991;28;20463;-86
2022/06/19 11:54:50;;;;;;;7.23;6.53;;;38.50;33.30;;;;;;5057247;28;20541;-84
2022/06/19 11:57:26;;;;;;;9.20;8.30;;;39.10;33.30;;;;;;5079045;28;20504;-85
2022/06/19 11:59:58;;;;;;;8.93;8.03;;;39.50;32.00;;;;;;5075170;28;20463;-86
2022/06/19 12:02:29;;;;;;;9.70;8.70;;;39.80;31.40;;;;;;5074712;28;20436;-84
2022/06/19 12:05:06;;;;;;;9.03;8.17;;;40.00;32.00;;;;;;5067396;28;20448;-86
2022/06/19 12:07:49;;;;;;;10.87;7.70;;;40.20;31.80;;;;;;5054164;28;20456;-86
2022/06/19 12:10:51;;;;;;;;;;;;;;;;;;;;;
2022/06/19 12:13:58;;;;;;;11.67;7.60;;;40.50;30.70;;;;;;5033695;28;20495;-86
2022/06/19 12:20:29;;;;;;;11.57;8.23;;;41.00;29.50;;;;;;5017550;28;20913;-86
2022/06/19 12:26:53;;;;;;;9.63;8.63;;;40.90;29.30;;;;;;5056294;28;20824;-87
2022/06/19 13:01:53;;;;;;;14.47;7.80;;;42.30;27.10;;;;;;4791255;29;20440;-88
2022/06/19 13:08:47;;;;;;;7.80;7.03;;;41.50;27.70;;;;;;4918076;29;20454;-87
2022/06/19 15:11:26;;;;;;;7.77;7.07;;;47.70;22.40;;;;;;4857270;29;20461;-86
2022/06/19 15:20:50;;;;;;;9.33;8.43;;;48.00;21.80;;;;;;5050256;28;20500;-86
2022/06/19 15:23:47;;;;;;;7.67;6.97;;;48.10;21.60;;;;;;5075356;28;20819;-86
2022/06/19 15:26:58;;;;;;;7.40;6.80;;;48.00;21.80;;;;;;5074300;28;20450;-86
2022/06/19 15:33:32;;;;;;;7.73;7.13;;;48.10;21.80;;;;;;5065265;28;20431;-87
2022/06/19 15:36:09;;;;;;;7.90;7.20;;;47.80;21.50;;;;;;5077194;28;20456;-89
2022/06/19 15:39:31;;;;;;;8.23;7.43;;;47.60;21.30;;;;;;5076957;28;20531;-89
2022/06/19 15:42:22;;;;;;;8.50;6.40;;;47.10;21.80;;;;;;5076008;28;20452;-87
2022/06/19 15:45:12;;;;;;;7.07;6.57;;;47.10;23.00;;;;;;5077899;28;20542;-87
2022/06/19 15:47:55;;;;;;;8.53;7.70;;;47.30;23.20;;;;;;5077164;28;20445;-88
2022/06/19 15:50:39;;;;;;;8.07;7.23;;;47.70;21.40;;;;;;5076391;28;20461;-87
2022/06/19 15:53:16;;;;;;;9.30;7.00;;;47.50;21.50;;;;;;5074396;28;20455;-88
2022/06/19 15:55:55;;;;;;;10.63;7.00;;;47.30;21.20;;;;;;5078838;28;20473;-89
2022/06/19 15:58:30;;;;;;;9.53;6.77;;;46.50;21.20;;;;;;5078405;28;20456;-86
2022/06/19 16:01:00;;;;;;;8.03;7.00;;;46.30;21.70;;;;;;5077920;28;20520;-87
2022/06/19 16:09:25;;;;;;;7.80;6.50;;;45.70;21.50;;;;;;5076674;28;20463;-87
2022/06/19 16:12:00;;;;;;;14.47;7.03;;;46.00;22.10;;;;;;5080302;28;20436;-86
2022/06/19 16:14:39;;;;;;;11.00;7.27;;;46.10;21.90;;;;;;5078300;28;21029;-86
2022/06/19 16:17:35;;;;;;;7.87;7.00;;;46.10;22.80;;;;;;5078410;28;20520;-86
2022/06/19 16:20:14;;;;;;;26.60;24.30;;;46.30;22.00;;;;;;5075416;28;20474;-86
2022/06/19 16:22:52;;;;;;;19.43;17.63;;;46.90;21.40;;;;;;5075901;28;20542;-86
2022/06/19 16:25:29;;;;;;;8.60;7.70;;;47.40;21.70;;;;;;5076148;28;20448;-88
2022/06/19 16:28:00;;;;;;;12.60;11.50;;;47.80;21.40;;;;;;5075022;28;20474;-87
2022/06/19 16:30:36;;;;;;;25.60;23.63;;;48.00;20.80;;;;;;5074294;28;20451;-87
2022/06/19 16:33:04;;;;;;;10.43;8.73;;;48.00;21.40;;;;;;5071849;28;20447;-87
2022/06/19 16:44:43;;;;;;;14.83;7.33;;;47.70;21.30;;;;;;5046705;28;20444;-87
2022/06/19 16:47:21;;;;;;;8.03;7.07;;;47.70;21.10;;;;;;5054247;28;20961;-87
2022/06/19 16:50:05;;;;;;;7.27;6.33;;;47.10;20.50;;;;;;5053841;28;20500;-87
2022/06/19 16:52:33;;;;;;;7.40;6.53;;;47.30;20.60;;;;;;5054256;28;20452;-87
2022/06/19 16:55:04;;;;;;;7.47;6.30;;;47.00;20.00;;;;;;5054593;28;20491;-87
2022/06/19 16:57:35;;;;;;;5.70;5.30;;;46.60;20.70;;;;;;5053942;28;20488;-88
2022/06/19 17:00:11;;;;;;;8.37;6.77;;;46.60;20.40;;;;;;5053661;28;20472;-87
2022/06/19 17:02:44;;;;;;;8.07;6.70;;;46.80;20.90;;;;;;5054888;28;20440;-87
2022/06/19 17:05:11;;;;;;;11.57;7.90;;;46.40;21.30;;;;;;5054560;28;20795;-87
2022/06/19 17:10:24;;;;;;;8.13;7.03;;;45.70;21.30;;;;;;5054101;28;20451;-88
2022/06/19 17:12:55;;;;;;;11.37;7.50;;;45.80;21.60;;;;;;5054023;28;20448;-88
2022/06/19 17:15:26;;;;;;;10.07;7.23;;;45.80;22.40;;;;;;5054139;28;20488;-87
2022/06/19 17:17:57;;;;;;;9.97;8.03;;;45.40;21.30;;;;;;5054705;28;20502;-88
2022/06/19 17:20:37;;;;;;;10.90;7.87;;;45.20;22.10;;;;;;5054273;28;20455;-89
2022/06/19 17:23:07;;;;;;;9.90;7.00;;;45.00;22.30;;;;;;5055941;28;20452;-88
2022/06/19 17:25:36;;;;;;;14.20;12.80;;;44.30;21.80;;;;;;5076985;28;20421;-88
2022/06/19 17:28:09;;;;;;;8.40;7.10;;;43.70;22.20;;;;;;5077479;28;20503;-88
2022/06/19 17:30:39;;;;;;;9.47;8.37;;;43.20;22.60;;;;;;5062686;28;20564;-89
2022/06/19 17:33:26;;;;;;;9.07;7.23;;;42.40;23.30;;;;;;5054566;28;20926;-89
2022/06/19 17:35:56;;;;;;;13.77;8.00;;;41.70;23.70;;;;;;5053987;28;20871;-89